createdAt,value
2022-09-13T00:02:21.009Z,7.20
2022-09-13T00:04:47.707Z,8.05
2022-09-13T00:07:14.332Z,8.90
2022-09-13T00:09:40.952Z,7.10
2022-09-13T00:12:07.668Z,8.65
2022-09-13T00:14:34.308Z,6.20
2022-09-13T00:17:00.963Z,13.50
2022-09-13T00:19:27.637Z,6.88
2022-09-13T00:21:54.280Z,11.48
2022-09-13T00:24:21.120Z,9.15
2022-09-13T00:26:47.796Z,9.50
2022-09-13T00:29:14.400Z,7.55
2022-09-13T00:31:41.258Z,9.65
2022-09-13T00:34:08.011Z,13.15
2022-09-13T00:36:34.764Z,10.80
2022-09-13T00:39:01.616Z,10.70
2022-09-13T00:41:28.251Z,8.45
2022-09-13T00:43:57.950Z,8.73
2022-09-13T00:46:42.458Z,9.35
2022-09-13T00:49:18.364Z,7.38
2022-09-13T00:51:52.249Z,6.75
2022-09-13T00:54:22.481Z,7.95
2022-09-13T00:56:55.235Z,11.15
2022-09-13T00:59:28.494Z,11.65
2022-09-13T01:01:57.026Z,8.77
2022-09-13T01:04:27.435Z,7.35
2022-09-13T01:06:59.008Z,6.70
2022-09-13T01:09:26.668Z,4.97
2022-09-13T01:12:04.321Z,4.90
2022-09-13T01:14:34.819Z,7.25
2022-09-13T01:17:01.688Z,5.65
2022-09-13T01:19:28.384Z,9.73
2022-09-13T01:22:19.006Z,8.80
2022-09-13T01:25:07.748Z,10.32
2022-09-13T01:27:55.884Z,7.22
2022-09-13T01:30:23.616Z,9.80
2022-09-13T01:33:09.066Z,10.77
2022-09-13T01:36:14.849Z,6.05
2022-09-13T01:38:58.142Z,10.13
2022-09-13T01:41:37.014Z,9.80
2022-09-13T01:44:31.139Z,6.97
2022-09-13T01:47:27.785Z,6.05
2022-09-13T01:50:13.040Z,4.38
2022-09-13T01:52:59.555Z,5.43
2022-09-13T01:55:47.553Z,7.88
2022-09-13T01:58:30.212Z,9.05
2022-09-13T02:01:07.151Z,9.50
2022-09-13T02:03:46.878Z,6.75
2022-09-13T02:06:22.173Z,6.78
2022-09-13T02:08:56.466Z,7.47
2022-09-13T02:11:23.994Z,8.32
2022-09-13T02:14:01.375Z,6.43
2022-09-13T02:16:37.139Z,8.80
2022-09-13T02:19:18.906Z,8.05
2022-09-13T02:21:49.456Z,6.47
2022-09-13T02:24:20.382Z,8.07
2022-09-13T02:26:51.800Z,8.05
2022-09-13T02:29:21.267Z,7.50
2022-09-13T02:32:22.928Z,8.90
2022-09-13T02:34:58.128Z,8.50
2022-09-13T02:37:27.303Z,10.32
2022-09-13T02:39:59.759Z,5.43
2022-09-13T02:42:34.590Z,6.93
2022-09-13T02:45:01.702Z,11.02
2022-09-13T02:47:37.447Z,6.65
2022-09-13T02:50:44.065Z,7.10
2022-09-13T02:53:16.807Z,10.02
2022-09-13T02:55:52.710Z,12.05
2022-09-13T02:58:27.286Z,8.80
2022-09-13T03:00:55.794Z,7.78
2022-09-13T03:03:22.564Z,8.52
2022-09-13T03:05:49.262Z,8.43
2022-09-13T03:08:17.694Z,7.95
2022-09-13T03:10:59.656Z,7.53
2022-09-13T03:13:48.054Z,8.13
2022-09-13T03:16:38.149Z,8.10
2022-09-13T03:19:22.772Z,5.55
2022-09-13T03:22:15.734Z,7.40
2022-09-13T03:25:25.273Z,10.07
2022-09-13T03:28:12.209Z,8.82
2022-09-13T03:30:47.905Z,8.00
2022-09-13T03:33:24.149Z,5.22
2022-09-13T03:36:14.304Z,6.72
2022-09-13T03:38:59.041Z,6.32
2022-09-13T03:41:32.193Z,9.90
2022-09-13T03:44:13.704Z,9.38
2022-09-13T03:46:43.895Z,9.45
2022-09-13T03:49:19.257Z,8.50
2022-09-13T03:51:49.785Z,10.38
2022-09-13T03:54:24.154Z,7.35
2022-09-13T03:57:17.419Z,5.68
2022-09-13T03:59:49.796Z,6.80
2022-09-13T04:02:17.723Z,7.82
2022-09-13T04:04:45.673Z,6.30
2022-09-13T04:07:15.397Z,8.90
2022-09-13T04:09:42.094Z,7.72
2022-09-13T04:12:11.445Z,5.35
2022-09-13T04:14:38.608Z,5.88
2022-09-13T04:17:05.661Z,7.03
2022-09-13T04:19:33.311Z,9.10
2022-09-13T04:22:00.282Z,5.25
2022-09-13T04:24:29.144Z,7.63
2022-09-13T04:26:56.413Z,5.88
2022-09-13T04:29:25.022Z,5.20
2022-09-13T04:31:54.154Z,5.93
2022-09-13T04:34:22.991Z,6.80
2022-09-13T04:36:51.212Z,8.48
2022-09-13T04:39:18.278Z,9.98
2022-09-13T04:41:47.062Z,8.10
2022-09-13T04:44:15.844Z,6.25
2022-09-13T04:46:43.082Z,7.93
2022-09-13T04:49:11.349Z,4.80
2022-09-13T04:51:38.071Z,6.90
2022-09-13T04:54:05.392Z,6.10
2022-09-13T04:56:32.148Z,6.00
2022-09-13T04:58:58.853Z,8.23
2022-09-13T05:01:27.940Z,5.88
2022-09-13T05:03:55.317Z,4.82
2022-09-13T05:06:22.772Z,5.60
2022-09-13T05:08:55.305Z,5.40
2022-09-13T05:11:27.614Z,7.25
2022-09-13T05:13:57.419Z,9.70
2022-09-13T05:16:29.808Z,10.82
2022-09-13T05:18:57.166Z,12.32
2022-09-13T05:21:24.156Z,8.80
2022-09-13T05:23:52.463Z,10.10
2022-09-13T05:26:19.643Z,6.35
2022-09-13T05:28:46.587Z,5.40
2022-09-13T05:31:16.929Z,4.30
2022-09-13T05:33:44.840Z,4.72
2022-09-13T05:36:11.668Z,5.30
2022-09-13T05:38:38.308Z,4.57
2022-09-13T05:41:06.370Z,4.05
2022-09-13T05:43:35.373Z,5.20
2022-09-13T05:46:13.708Z,3.47
2022-09-13T05:48:41.263Z,5.50
2022-09-13T05:51:11.944Z,8.48
2022-09-13T05:53:40.042Z,7.45
2022-09-13T05:56:16.472Z,5.88
2022-09-13T05:58:45.663Z,6.93
2022-09-13T06:01:13.087Z,5.95
2022-09-13T06:03:40.009Z,3.88
2022-09-13T06:06:08.148Z,4.18
2022-09-13T06:08:35.381Z,7.38
2022-09-13T06:11:07.356Z,5.35
2022-09-13T06:16:03.036Z,6.75
2022-09-13T06:18:30.058Z,5.82
2022-09-13T06:21:20.146Z,6.43
2022-09-13T06:23:56.144Z,5.65
2022-09-13T06:26:25.878Z,4.60
2022-09-13T06:28:55.146Z,5.43
2022-09-13T06:31:24.955Z,6.43
2022-09-13T06:33:59.566Z,8.30
2022-09-13T06:36:26.337Z,5.60
2022-09-13T06:38:53.233Z,5.38
2022-09-13T06:41:23.209Z,5.05
2022-09-13T06:43:58.520Z,7.43
2022-09-13T06:46:26.930Z,6.45
2022-09-13T06:48:54.356Z,6.60
2022-09-13T06:51:23.787Z,8.80
2022-09-13T06:53:51.809Z,9.88
2022-09-13T06:56:21.786Z,8.02
2022-09-13T06:58:50.641Z,6.10
2022-09-13T07:01:20.793Z,8.93
2022-09-13T07:03:52.996Z,6.40
2022-09-13T07:06:27.002Z,7.80
2022-09-13T07:08:55.055Z,10.00
2022-09-13T07:11:23.815Z,10.32
2022-09-13T07:13:55.641Z,10.00
2022-09-13T07:16:25.115Z,11.38
2022-09-13T07:18:56.935Z,9.13
2022-09-13T07:21:24.539Z,9.80
2022-09-13T07:23:52.692Z,8.40
2022-09-13T07:26:19.755Z,10.48
2022-09-13T07:28:49.341Z,5.93
2022-09-13T07:31:22.673Z,7.88
2022-09-13T07:33:55.201Z,9.32
2022-09-13T07:36:22.055Z,5.78
2022-09-13T07:38:48.949Z,6.50
2022-09-13T07:41:18.414Z,10.25
2022-09-13T07:43:45.462Z,5.72
2022-09-13T07:46:15.253Z,5.95
2022-09-13T07:48:44.157Z,7.82
2022-09-13T07:51:13.351Z,6.63
2022-09-13T07:53:42.036Z,6.00
2022-09-13T07:56:13.810Z,4.97
2022-09-13T07:58:43.090Z,6.90
2022-09-13T08:01:20.640Z,6.65
2022-09-13T08:04:10.899Z,6.75
2022-09-13T08:06:39.414Z,6.70
2022-09-13T08:09:07.781Z,6.03
2022-09-13T08:11:43.129Z,5.20
2022-09-13T08:14:12.266Z,6.80
2022-09-13T08:16:39.974Z,4.88
2022-09-13T08:19:08.414Z,5.60
2022-09-13T08:21:37.251Z,5.93
2022-09-13T08:24:06.252Z,7.45
2022-09-13T08:26:34.348Z,5.28
2022-09-13T08:29:03.785Z,7.57
2022-09-13T08:31:31.423Z,7.97
2022-09-13T08:33:58.471Z,7.05
2022-09-13T08:36:26.942Z,7.63
2022-09-13T08:38:58.852Z,9.68
2022-09-13T08:41:41.945Z,6.10
2022-09-13T08:44:29.686Z,6.35
2022-09-13T08:47:11.233Z,7.57
2022-09-13T08:49:45.535Z,6.80
2022-09-13T08:52:20.468Z,5.80
2022-09-13T08:54:47.868Z,6.93
2022-09-13T08:57:26.930Z,7.53
2022-09-13T08:59:59.488Z,5.88
2022-09-13T09:02:54.248Z,6.22
2022-09-13T09:05:32.805Z,5.90
2022-09-13T09:08:13.627Z,6.63
2022-09-13T09:10:46.473Z,7.22
2022-09-13T09:13:24.428Z,6.43
2022-09-13T09:15:57.485Z,5.25
2022-09-13T09:18:29.202Z,4.78
2022-09-13T09:20:58.043Z,5.78
2022-09-13T09:23:39.832Z,6.80
2022-09-13T09:26:28.977Z,5.63
2022-09-13T09:29:01.016Z,4.85
2022-09-13T09:31:55.426Z,4.70
2022-09-13T09:34:42.821Z,5.78
2022-09-13T09:37:19.963Z,5.70
2022-09-13T09:39:47.637Z,5.93
2022-09-13T09:42:19.411Z,5.47
2022-09-13T09:47:29.559Z,5.57
2022-09-13T09:50:12.935Z,4.43
2022-09-13T09:53:07.514Z,6.90
2022-09-13T09:55:51.964Z,5.47
2022-09-13T09:58:36.221Z,4.25
2022-09-13T10:01:03.451Z,4.05
2022-09-13T10:03:32.818Z,5.47
2022-09-13T10:06:12.588Z,4.47
2022-09-13T10:08:41.886Z,3.08
2022-09-13T10:11:09.632Z,4.05
2022-09-13T10:13:37.170Z,4.72
2022-09-13T10:16:07.576Z,5.15
2022-09-13T10:18:44.816Z,6.88
2022-09-13T10:21:17.718Z,2.97
2022-09-13T10:23:50.344Z,3.35
2022-09-13T10:26:25.785Z,4.60
2022-09-13T10:29:15.063Z,6.72
2022-09-13T10:31:47.267Z,4.88
2022-09-13T10:34:31.047Z,3.65
2022-09-13T10:37:17.728Z,3.60
2022-09-13T10:40:09.730Z,3.75
2022-09-13T10:42:36.846Z,3.90
2022-09-13T10:45:24.184Z,2.53
2022-09-13T10:47:57.769Z,3.10
2022-09-13T10:50:31.381Z,4.80
2022-09-13T10:52:59.639Z,3.03
2022-09-13T10:55:36.543Z,3.08
2022-09-13T10:58:03.143Z,2.95
2022-09-13T11:00:38.792Z,4.53
2022-09-13T11:03:11.642Z,5.50
2022-09-13T11:05:56.664Z,7.53
2022-09-13T11:08:43.738Z,3.88
2022-09-13T11:11:22.720Z,3.20
2022-09-13T11:14:11.198Z,4.15
2022-09-13T11:16:59.456Z,3.17
2022-09-13T11:19:45.073Z,3.22
2022-09-13T11:22:30.448Z,1.80
2022-09-13T11:25:02.986Z,2.58
2022-09-13T11:27:41.767Z,5.20
2022-09-13T11:30:19.479Z,1.85
2022-09-13T11:33:04.989Z,2.28
2022-09-13T11:36:09.594Z,3.58
2022-09-13T11:38:48.178Z,2.35
2022-09-13T11:41:45.923Z,3.20
2022-09-13T11:44:21.626Z,2.60
2022-09-13T11:47:00.121Z,2.00
2022-09-13T11:50:00.418Z,2.10
2022-09-13T11:52:39.045Z,2.42
2022-09-13T11:55:20.999Z,3.00
2022-09-13T11:57:52.651Z,2.60
2022-09-13T12:00:23.924Z,1.42
2022-09-13T12:06:14.427Z,1.50
2022-09-13T12:08:45.580Z,2.75
2022-09-13T12:11:34.766Z,3.22
2022-09-13T12:14:07.585Z,2.65
2022-09-13T12:16:57.998Z,3.22
2022-09-13T12:19:41.612Z,2.05
2022-09-13T12:22:10.418Z,4.28
2022-09-13T12:24:43.358Z,3.25
2022-09-13T12:27:25.092Z,2.58
2022-09-13T12:30:18.575Z,3.67
2022-09-13T12:32:47.397Z,2.55
2022-09-13T12:35:32.328Z,1.95
2022-09-13T12:38:37.914Z,2.45
2022-09-13T12:41:35.481Z,2.35
2022-09-13T12:44:33.439Z,1.90
2022-09-13T12:47:24.939Z,1.77
2022-09-13T12:50:21.402Z,2.40
2022-09-13T12:53:20.041Z,2.53
2022-09-13T12:56:14.732Z,2.97
2022-09-13T12:58:48.379Z,1.58
2022-09-13T13:01:26.681Z,2.47
2022-09-13T13:03:58.773Z,1.63
2022-09-13T13:06:34.757Z,2.72
2022-09-13T13:09:22.379Z,1.88
2022-09-13T13:11:54.398Z,2.57
2022-09-13T13:14:45.214Z,3.30
2022-09-13T13:17:41.462Z,2.35
2022-09-13T13:20:39.039Z,1.85
2022-09-13T13:23:16.413Z,5.00
2022-09-13T13:26:08.791Z,1.77
2022-09-13T13:28:44.915Z,1.70
2022-09-13T13:31:29.982Z,1.98
2022-09-13T13:34:14.941Z,2.65
2022-09-13T13:36:41.502Z,2.80
2022-09-13T13:39:23.466Z,1.30
2022-09-13T13:41:55.945Z,1.90
2022-09-13T13:44:22.560Z,2.28
2022-09-13T13:46:54.347Z,4.07
2022-09-13T13:49:30.175Z,1.27
2022-09-13T13:52:08.995Z,3.40
2022-09-13T13:54:58.346Z,2.70
2022-09-13T13:57:39.011Z,1.17
2022-09-13T14:00:09.325Z,3.30
2022-09-13T14:02:53.411Z,1.40
2022-09-13T14:05:26.205Z,4.10
2022-09-13T14:08:22.400Z,2.75
2022-09-13T14:11:20.529Z,1.40
2022-09-13T14:13:59.488Z,2.67
2022-09-13T14:16:41.188Z,2.03
2022-09-13T14:19:32.120Z,1.45
2022-09-13T14:22:18.038Z,2.60
2022-09-13T14:24:56.187Z,2.75
2022-09-13T14:27:29.492Z,2.65
2022-09-13T14:30:03.227Z,2.17
2022-09-13T14:32:42.196Z,1.80
2022-09-13T14:35:40.591Z,1.70
2022-09-13T14:38:26.130Z,2.33
2022-09-13T14:40:58.288Z,1.33
2022-09-13T14:43:27.821Z,1.20
2022-09-13T14:46:05.164Z,3.00
2022-09-13T14:48:57.250Z,2.22
2022-09-13T14:51:28.051Z,1.65
2022-09-13T14:54:02.948Z,5.00
2022-09-13T14:56:46.978Z,3.15
2022-09-13T14:59:20.094Z,2.85
2022-09-13T15:01:46.756Z,3.08
2022-09-13T15:04:13.423Z,2.35
2022-09-13T15:06:41.154Z,1.17
2022-09-13T15:09:10.507Z,1.85
2022-09-13T15:11:42.362Z,1.77
2022-09-13T15:14:14.773Z,3.92
2022-09-13T15:16:53.795Z,2.00
2022-09-13T15:19:35.266Z,2.17
2022-09-13T15:22:14.070Z,1.45
2022-09-13T15:24:46.313Z,2.45
2022-09-13T15:27:47.309Z,1.80
2022-09-13T15:30:29.181Z,1.98
2022-09-13T15:33:11.430Z,1.60
2022-09-13T15:35:44.800Z,1.38
2022-09-13T15:38:28.318Z,1.88
2022-09-13T15:41:21.784Z,1.67
2022-09-13T15:43:48.693Z,1.55
2022-09-13T15:46:16.169Z,2.15
2022-09-13T15:48:51.171Z,1.75
2022-09-13T15:51:18.297Z,2.72
2022-09-13T15:53:46.652Z,2.72
2022-09-13T15:56:19.311Z,1.85
2022-09-13T15:58:46.474Z,2.30
2022-09-13T16:01:14.825Z,3.67
2022-09-13T16:03:41.989Z,2.67
2022-09-13T16:06:09.468Z,2.30
2022-09-13T16:08:40.170Z,1.60
2022-09-13T16:11:07.993Z,4.05
2022-09-13T16:13:37.370Z,1.80
2022-09-13T16:16:05.101Z,2.10
2022-09-13T16:18:32.126Z,3.78
2022-09-13T16:20:58.837Z,3.72
2022-09-13T16:23:25.710Z,8.27
2022-09-13T16:25:56.159Z,3.42
2022-09-13T16:28:22.914Z,6.17
2022-09-13T16:30:49.725Z,2.42
2022-09-13T16:33:16.346Z,3.40
2022-09-13T16:35:43.093Z,3.85
2022-09-13T16:38:10.663Z,3.60
2022-09-13T16:40:43.420Z,4.40
2022-09-13T16:43:10.202Z,3.38
2022-09-13T16:45:41.061Z,1.85
2022-09-13T16:48:08.892Z,3.70
2022-09-13T16:50:38.785Z,4.85
2022-09-13T16:53:05.706Z,4.97
2022-09-13T16:55:32.644Z,4.15
2022-09-13T16:57:59.252Z,3.85
2022-09-13T17:00:28.552Z,2.35
2022-09-13T17:02:56.460Z,4.10
2022-09-13T17:05:24.034Z,3.85
2022-09-13T17:07:51.981Z,5.82
2022-09-13T17:10:19.335Z,3.00
2022-09-13T17:12:46.168Z,4.63
2022-09-13T17:15:13.019Z,3.20
2022-09-13T17:17:42.376Z,3.58
2022-09-13T17:20:11.881Z,3.83
2022-09-13T17:22:38.787Z,7.13
2022-09-13T17:25:07.656Z,4.22
2022-09-13T17:27:34.400Z,3.65
2022-09-13T17:30:03.304Z,2.40
2022-09-13T17:32:29.975Z,3.10
2022-09-13T17:34:56.555Z,4.28
2022-09-13T17:37:23.190Z,3.53
2022-09-13T17:39:49.944Z,3.47
2022-09-13T17:42:20.061Z,4.00
2022-09-13T17:44:49.270Z,5.00
2022-09-13T17:47:15.996Z,3.33
2022-09-13T17:49:42.804Z,3.58
2022-09-13T17:52:09.712Z,4.18
2022-09-13T17:54:38.408Z,3.88
2022-09-13T17:57:05.243Z,1.67
2022-09-13T17:59:32.170Z,2.85
2022-09-13T18:02:00.900Z,4.03
2022-09-13T18:04:27.705Z,3.33
2022-09-13T18:06:54.640Z,2.95
2022-09-13T18:09:21.883Z,3.60
2022-09-13T18:11:48.954Z,2.88
2022-09-13T18:14:17.212Z,4.00
2022-09-13T18:16:44.798Z,2.65
2022-09-13T18:19:12.089Z,2.33
2022-09-13T18:21:38.867Z,2.85
2022-09-13T18:24:06.719Z,4.20
2022-09-13T18:26:33.633Z,2.03
2022-09-13T18:29:02.881Z,3.72
2022-09-13T18:31:31.442Z,3.15
2022-09-13T18:34:05.392Z,3.47
2022-09-13T18:36:33.665Z,3.45
2022-09-13T18:39:07.197Z,2.95
2022-09-13T18:41:42.055Z,4.05
2022-09-13T18:44:12.409Z,5.03
2022-09-13T18:46:39.831Z,3.55
2022-09-13T18:49:07.218Z,2.92
2022-09-13T18:51:36.387Z,2.17
2022-09-13T18:54:04.439Z,3.17
2022-09-13T18:56:32.732Z,3.83
2022-09-13T18:59:01.612Z,2.72
2022-09-13T19:01:34.295Z,3.00
2022-09-13T19:04:05.902Z,2.10
2022-09-13T19:09:02.882Z,5.18
2022-09-13T19:11:46.348Z,3.20
2022-09-13T19:14:22.976Z,1.90
2022-09-13T19:16:50.734Z,3.42
2022-09-13T19:19:17.515Z,3.05
2022-09-13T19:21:44.252Z,3.10
2022-09-13T19:24:17.798Z,3.03
2022-09-13T19:26:46.847Z,2.97
2022-09-13T19:29:16.256Z,3.45
2022-09-13T19:31:47.403Z,3.20
2022-09-13T19:34:15.019Z,4.60
2022-09-13T19:36:43.097Z,3.70
2022-09-13T19:39:10.141Z,2.40
2022-09-13T19:41:38.455Z,2.08
2022-09-13T19:44:05.909Z,1.90
2022-09-13T19:46:35.772Z,2.13
2022-09-13T19:49:03.257Z,4.28
2022-09-13T19:51:35.587Z,3.88
2022-09-13T19:54:04.432Z,4.70
2022-09-13T19:56:33.668Z,1.60
2022-09-13T19:59:01.953Z,1.63
2022-09-13T20:01:31.533Z,1.77
2022-09-13T20:04:04.061Z,2.90
2022-09-13T20:06:41.422Z,3.17
2022-09-13T20:09:09.419Z,3.47
2022-09-13T20:11:42.661Z,3.40
2022-09-13T20:14:10.653Z,1.60
2022-09-13T20:16:39.430Z,1.40
2022-09-13T20:19:36.288Z,4.88
2022-09-13T20:21:56.947Z,4.15
2022-09-13T20:24:23.886Z,3.35
2022-09-13T20:26:52.071Z,4.57
2022-09-13T20:29:18.989Z,2.78
2022-09-13T20:31:48.508Z,2.25
2022-09-13T20:34:15.206Z,2.33
2022-09-13T20:36:44.151Z,5.25
2022-09-13T20:39:11.206Z,2.00
2022-09-13T20:41:37.944Z,2.35
2022-09-13T20:44:04.612Z,2.88
2022-09-13T20:46:31.663Z,2.50
2022-09-13T20:48:58.937Z,4.15
2022-09-13T20:51:28.855Z,5.55
2022-09-13T20:54:00.458Z,3.80
2022-09-13T20:56:28.654Z,4.20
2022-09-13T20:58:58.165Z,5.72
2022-09-13T21:01:26.870Z,6.18
2022-09-13T21:03:55.390Z,2.60
2022-09-13T21:06:25.354Z,4.95
2022-09-13T21:08:52.503Z,2.92
2022-09-13T21:11:26.929Z,4.78
2022-09-13T21:13:59.130Z,5.18
2022-09-13T21:16:31.252Z,4.18
2022-09-13T21:18:58.253Z,2.28
2022-09-13T21:21:43.954Z,4.88
2022-09-13T21:24:12.674Z,5.00
2022-09-13T21:26:42.141Z,4.43
2022-09-13T21:29:10.246Z,5.55
2022-09-13T21:31:37.992Z,5.90
2022-09-13T21:34:06.691Z,7.32
2022-09-13T21:36:34.965Z,4.38
2022-09-13T21:39:02.932Z,4.93
2022-09-13T21:41:29.635Z,3.63
2022-09-13T21:43:56.417Z,4.30
2022-09-13T21:46:25.972Z,6.78
2022-09-13T21:48:56.086Z,7.07
2022-09-13T21:51:24.067Z,5.43
2022-09-13T21:53:58.177Z,5.28
2022-09-13T21:56:28.017Z,4.43
2022-09-13T21:59:00.115Z,2.50
2022-09-13T22:01:30.016Z,2.17
2022-09-13T22:03:57.640Z,4.03
2022-09-13T22:06:24.493Z,2.63
2022-09-13T22:08:53.319Z,3.92
2022-09-13T22:11:22.655Z,4.95
2022-09-13T22:13:50.062Z,4.80
2022-09-13T22:16:23.733Z,3.85
2022-09-13T22:18:56.693Z,2.95
2022-09-13T22:21:26.021Z,1.67
2022-09-13T22:23:53.083Z,3.22
2022-09-13T22:26:25.448Z,3.97
2022-09-13T22:28:53.825Z,2.63
2022-09-13T22:31:23.847Z,2.42
2022-09-13T22:33:51.695Z,2.40
2022-09-13T22:36:19.417Z,1.80
2022-09-13T22:38:49.307Z,2.60
2022-09-13T22:41:24.615Z,2.95
2022-09-13T22:43:51.383Z,1.80
2022-09-13T22:46:23.872Z,2.88
2022-09-13T22:48:51.019Z,2.58
2022-09-13T22:51:18.524Z,3.20
2022-09-13T22:53:46.845Z,3.88
2022-09-13T22:56:16.746Z,3.30
2022-09-13T22:58:43.701Z,2.30
2022-09-13T23:01:18.804Z,3.17
2022-09-13T23:03:47.210Z,3.25
2022-09-13T23:06:15.585Z,3.42
2022-09-13T23:08:42.366Z,4.63
2022-09-13T23:11:21.296Z,3.72
2022-09-13T23:13:50.522Z,4.40
2022-09-13T23:16:29.838Z,5.30
2022-09-13T23:18:57.119Z,3.83
2022-09-13T23:21:26.303Z,4.15
2022-09-13T23:23:54.121Z,5.03
2022-09-13T23:26:22.727Z,4.60
2022-09-13T23:28:58.430Z,3.10
2022-09-13T23:31:31.233Z,4.90
2022-09-13T23:34:02.899Z,4.80
2022-09-13T23:39:08.179Z,4.68
2022-09-13T23:41:35.520Z,2.78
2022-09-13T23:44:03.066Z,3.30
2022-09-13T23:46:30.861Z,6.45
2022-09-13T23:48:57.497Z,7.22
2022-09-13T23:51:25.995Z,5.30
2022-09-13T23:53:56.677Z,3.70
2022-09-13T23:56:25.103Z,1.75
2022-09-13T23:58:52.320Z,3.58
